sensor_id;sensor_type;location;lat;lon;timestamp;pressure;altitude;pressure_sealevel;temperature;humidity
77227;BME280;66234;47.642;19.144;2024-01-30T00:02:08;102720.38;;;-3.13;100.00
77227;BME280;66234;47.642;19.144;2024-01-30T00:05:11;102718.56;;;-3.11;100.00
77227;BME280;66234;47.642;19.144;2024-01-30T00:08:13;102716.88;;;-3.14;100.00
77227;BME280;66234;47.642;19.144;2024-01-30T00:11:16;102716.75;;;-3.09;100.00
77227;BME280;66234;47.642;19.144;2024-01-30T00:14:19;102721.09;;;-3.10;100.00
77227;BME280;66234;47.642;19.144;2024-01-30T00:17:21;102722.72;;;-3.29;100.00
77227;BME280;66234;47.642;19.144;2024-01-30T00:20:24;102724.59;;;-3.33;100.00
77227;BME280;66234;47.642;19.144;2024-01-30T00:23:27;102710.63;;;-3.31;100.00
77227;BME280;66234;47.642;19.144;2024-01-30T00:26:29;102720.03;;;-3.27;100.00
77227;BME280;66234;47.642;19.144;2024-01-30T00:29:32;102724.34;;;-3.25;100.00
77227;BME280;66234;47.642;19.144;2024-01-30T00:32:36;102725.28;;;-3.27;100.00
77227;BME280;66234;47.642;19.144;2024-01-30T00:35:39;102724.97;;;-3.20;100.00
77227;BME280;66234;47.642;19.144;2024-01-30T00:38:41;102726.94;;;-3.25;100.00
77227;BME280;66234;47.642;19.144;2024-01-30T00:41:44;102719.47;;;-3.36;100.00
77227;BME280;66234;47.642;19.144;2024-01-30T00:44:47;102720.53;;;-3.40;100.00
77227;BME280;66234;47.642;19.144;2024-01-30T00:47:49;102723.13;;;-3.40;100.00
77227;BME280;66234;47.642;19.144;2024-01-30T00:50:52;102725.94;;;-3.44;100.00
77227;BME280;66234;47.642;19.144;2024-01-30T00:53:55;102720.88;;;-3.49;100.00
77227;BME280;66234;47.642;19.144;2024-01-30T00:56:57;102720.88;;;-3.49;100.00
77227;BME280;66234;47.642;19.144;2024-01-30T01:00:00;102721.06;;;-3.53;100.00
77227;BME280;66234;47.642;19.144;2024-01-30T01:03:03;102718.44;;;-3.53;100.00
77227;BME280;66234;47.642;19.144;2024-01-30T01:06:05;102724.56;;;-3.54;100.00
77227;BME280;66234;47.642;19.144;2024-01-30T01:09:08;102721.22;;;-3.58;100.00
77227;BME280;66234;47.642;19.144;2024-01-30T01:12:11;102715.19;;;-3.60;100.00
77227;BME280;66234;47.642;19.144;2024-01-30T01:15:13;102713.75;;;-3.68;100.00
77227;BME280;66234;47.642;19.144;2024-01-30T01:18:16;102712.63;;;-3.61;100.00
77227;BME280;66234;47.642;19.144;2024-01-30T01:21:18;102709.38;;;-3.68;100.00
77227;BME280;66234;47.642;19.144;2024-01-30T01:24:21;102719.22;;;-3.74;100.00
77227;BME280;66234;47.642;19.144;2024-01-30T01:27:23;102714.22;;;-3.80;100.00
77227;BME280;66234;47.642;19.144;2024-01-30T01:30:26;102720.03;;;-3.72;100.00
77227;BME280;66234;47.642;19.144;2024-01-30T01:33:29;102717.28;;;-3.69;100.00
77227;BME280;66234;47.642;19.144;2024-01-30T01:36:31;102712.28;;;-3.75;100.00
77227;BME280;66234;47.642;19.144;2024-01-30T01:39:34;102707.06;;;-3.75;100.00
77227;BME280;66234;47.642;19.144;2024-01-30T01:42:36;102704.50;;;-3.77;100.00
77227;BME280;66234;47.642;19.144;2024-01-30T01:45:39;102705.47;;;-3.79;100.00
77227;BME280;66234;47.642;19.144;2024-01-30T01:48:42;102701.03;;;-3.77;100.00
77227;BME280;66234;47.642;19.144;2024-01-30T01:51:47;102704.72;;;-3.83;100.00
77227;BME280;66234;47.642;19.144;2024-01-30T01:54:50;102698.47;;;-3.79;100.00
77227;BME280;66234;47.642;19.144;2024-01-30T01:57:53;102696.59;;;-3.75;100.00
77227;BME280;66234;47.642;19.144;2024-01-30T02:00:57;102699.16;;;-3.74;100.00
77227;BME280;66234;47.642;19.144;2024-01-30T02:04:01;102698.19;;;-3.71;100.00
77227;BME280;66234;47.642;19.144;2024-01-30T02:07:03;102701.16;;;-3.80;100.00
77227;BME280;66234;47.642;19.144;2024-01-30T02:10:08;102696.84;;;-3.81;100.00
77227;BME280;66234;47.642;19.144;2024-01-30T02:13:11;102690.63;;;-3.79;100.00
77227;BME280;66234;47.642;19.144;2024-01-30T02:16:14;102693.88;;;-3.72;100.00
77227;BME280;66234;47.642;19.144;2024-01-30T02:19:17;102686.31;;;-3.80;100.00
77227;BME280;66234;47.642;19.144;2024-01-30T02:22:20;102692.53;;;-3.82;100.00
77227;BME280;66234;47.642;19.144;2024-01-30T02:25:33;102690.91;;;-3.86;100.00
77227;BME280;66234;47.642;19.144;2024-01-30T02:28:36;102697.13;;;-3.89;100.00
77227;BME280;66234;47.642;19.144;2024-01-30T02:31:39;102693.75;;;-3.92;100.00
77227;BME280;66234;47.642;19.144;2024-01-30T02:34:41;102699.44;;;-3.81;100.00
77227;BME280;66234;47.642;19.144;2024-01-30T02:37:44;102699.44;;;-3.81;100.00
77227;BME280;66234;47.642;19.144;2024-01-30T02:40:47;102703.75;;;-3.80;100.00
77227;BME280;66234;47.642;19.144;2024-01-30T02:43:49;102703.88;;;-3.83;100.00
77227;BME280;66234;47.642;19.144;2024-01-30T02:46:52;102705.53;;;-3.81;100.00
77227;BME280;66234;47.642;19.144;2024-01-30T02:49:56;102693.81;;;-3.94;100.00
77227;BME280;66234;47.642;19.144;2024-01-30T02:52:59;102689.63;;;-3.98;100.00
77227;BME280;66234;47.642;19.144;2024-01-30T02:56:02;102692.66;;;-3.85;100.00
77227;BME280;66234;47.642;19.144;2024-01-30T02:59:05;102694.69;;;-3.93;100.00
77227;BME280;66234;47.642;19.144;2024-01-30T03:02:08;102689.72;;;-4.01;100.00
77227;BME280;66234;47.642;19.144;2024-01-30T03:05:10;102693.34;;;-4.05;100.00
77227;BME280;66234;47.642;19.144;2024-01-30T03:08:13;102697.72;;;-4.05;100.00
77227;BME280;66234;47.642;19.144;2024-01-30T03:11:16;102698.84;;;-4.12;100.00
77227;BME280;66234;47.642;19.144;2024-01-30T03:14:18;102702.28;;;-4.10;100.00
77227;BME280;66234;47.642;19.144;2024-01-30T03:17:21;102699.94;;;-4.18;100.00
77227;BME280;66234;47.642;19.144;2024-01-30T03:20:24;102705.72;;;-4.10;100.00
77227;BME280;66234;47.642;19.144;2024-01-30T03:23:26;102705.47;;;-4.02;100.00
77227;BME280;66234;47.642;19.144;2024-01-30T03:26:29;102701.34;;;-4.09;100.00
77227;BME280;66234;47.642;19.144;2024-01-30T03:29:31;102697.44;;;-4.22;100.00
77227;BME280;66234;47.642;19.144;2024-01-30T03:32:34;102703.31;;;-4.16;100.00
77227;BME280;66234;47.642;19.144;2024-01-30T03:35:36;102693.72;;;-4.15;100.00
77227;BME280;66234;47.642;19.144;2024-01-30T03:38:39;102689.31;;;-4.13;100.00
77227;BME280;66234;47.642;19.144;2024-01-30T03:41:42;102680.19;;;-4.26;100.00
77227;BME280;66234;47.642;19.144;2024-01-30T03:44:45;102683.56;;;-4.23;100.00
77227;BME280;66234;47.642;19.144;2024-01-30T03:47:49;102683.63;;;-4.24;100.00
77227;BME280;66234;47.642;19.144;2024-01-30T03:50:51;102681.84;;;-4.24;100.00
77227;BME280;66234;47.642;19.144;2024-01-30T03:53:54;102671.44;;;-4.25;100.00
77227;BME280;66234;47.642;19.144;2024-01-30T03:56:56;102677.19;;;-4.16;100.00
77227;BME280;66234;47.642;19.144;2024-01-30T03:59:59;102678.16;;;-4.18;100.00
77227;BME280;66234;47.642;19.144;2024-01-30T04:03:14;102681.25;;;-4.07;100.00
77227;BME280;66234;47.642;19.144;2024-01-30T04:06:18;102679.38;;;-4.28;100.00
77227;BME280;66234;47.642;19.144;2024-01-30T04:09:20;102684.94;;;-4.37;100.00
77227;BME280;66234;47.642;19.144;2024-01-30T04:12:23;102675.34;;;-4.37;100.00
77227;BME280;66234;47.642;19.144;2024-01-30T04:15:25;102671.72;;;-4.33;100.00
77227;BME280;66234;47.642;19.144;2024-01-30T04:18:29;102669.28;;;-4.37;100.00
77227;BME280;66234;47.642;19.144;2024-01-30T04:21:31;102679.78;;;-4.39;100.00
77227;BME280;66234;47.642;19.144;2024-01-30T04:24:34;102676.34;;;-4.41;100.00
77227;BME280;66234;47.642;19.144;2024-01-30T04:27:36;102678.94;;;-4.39;100.00
77227;BME280;66234;47.642;19.144;2024-01-30T04:30:39;102683.06;;;-4.34;100.00
77227;BME280;66234;47.642;19.144;2024-01-30T04:33:42;102678.94;;;-4.39;100.00
77227;BME280;66234;47.642;19.144;2024-01-30T04:36:45;102681.63;;;-4.42;100.00
77227;BME280;66234;47.642;19.144;2024-01-30T04:39:48;102681.84;;;-4.48;100.00
77227;BME280;66234;47.642;19.144;2024-01-30T04:42:50;102685.41;;;-4.51;100.00
77227;BME280;66234;47.642;19.144;2024-01-30T04:45:53;102680.19;;;-4.51;100.00
77227;BME280;66234;47.642;19.144;2024-01-30T04:48:56;102693.19;;;-4.49;100.00
77227;BME280;66234;47.642;19.144;2024-01-30T04:51:59;102692.13;;;-4.44;100.00
77227;BME280;66234;47.642;19.144;2024-01-30T04:55:01;102692.22;;;-4.47;100.00
77227;BME280;66234;47.642;19.144;2024-01-30T04:58:04;102692.34;;;-4.50;100.00
77227;BME280;66234;47.642;19.144;2024-01-30T05:01:07;102702.03;;;-4.53;100.00
77227;BME280;66234;47.642;19.144;2024-01-30T05:04:10;102700.09;;;-4.48;100.00
77227;BME280;66234;47.642;19.144;2024-01-30T05:07:18;102698.16;;;-4.42;100.00
77227;BME280;66234;47.642;19.144;2024-01-30T05:10:21;102707.91;;;-4.22;100.00
77227;BME280;66234;47.642;19.144;2024-01-30T05:13:23;102707.09;;;-4.00;100.00
77227;BME280;66234;47.642;19.144;2024-01-30T05:16:26;102702.78;;;-4.01;100.00
77227;BME280;66234;47.642;19.144;2024-01-30T05:19:29;102702.88;;;-4.04;100.00
77227;BME280;66234;47.642;19.144;2024-01-30T05:22:31;102714.34;;;-4.08;100.00
77227;BME280;66234;47.642;19.144;2024-01-30T05:25:34;102717.03;;;-4.09;100.00
77227;BME280;66234;47.642;19.144;2024-01-30T05:28:36;102724.44;;;-4.22;100.00
77227;BME280;66234;47.642;19.144;2024-01-30T05:31:40;102714.91;;;-4.23;100.00
77227;BME280;66234;47.642;19.144;2024-01-30T05:34:42;102729.91;;;-4.29;100.00
77227;BME280;66234;47.642;19.144;2024-01-30T05:37:45;102725.66;;;-4.32;100.00
77227;BME280;66234;47.642;19.144;2024-01-30T05:40:47;102724.22;;;-4.40;100.00
77227;BME280;66234;47.642;19.144;2024-01-30T05:43:50;102725.72;;;-4.33;100.00
77227;BME280;66234;47.642;19.144;2024-01-30T05:46:52;102727.88;;;-4.46;100.00
77227;BME280;66234;47.642;19.144;2024-01-30T05:49:55;102729.69;;;-4.48;100.00
77227;BME280;66234;47.642;19.144;2024-01-30T05:52:58;102727.94;;;-4.47;100.00
77227;BME280;66234;47.642;19.144;2024-01-30T05:56:01;102730.66;;;-4.50;100.00
77227;BME280;66234;47.642;19.144;2024-01-30T05:59:04;102733.16;;;-4.47;100.00
77227;BME280;66234;47.642;19.144;2024-01-30T06:02:07;102735.00;;;-4.51;100.00
77227;BME280;66234;47.642;19.144;2024-01-30T06:05:10;102730.81;;;-4.55;100.00
77227;BME280;66234;47.642;19.144;2024-01-30T06:08:12;102731.59;;;-4.53;100.00
77227;BME280;66234;47.642;19.144;2024-01-30T06:11:15;102729.69;;;-4.48;100.00
77227;BME280;66234;47.642;19.144;2024-01-30T06:14:17;102736.09;;;-4.56;100.00
77227;BME280;66234;47.642;19.144;2024-01-30T06:17:20;102738.34;;;-4.46;100.00
77227;BME280;66234;47.642;19.144;2024-01-30T06:20:22;102722.63;;;-4.44;100.00
77227;BME280;66234;47.642;19.144;2024-01-30T06:23:25;102725.28;;;-4.46;100.00
77227;BME280;66234;47.642;19.144;2024-01-30T06:26:28;102731.34;;;-4.45;100.00
77227;BME280;66234;47.642;19.144;2024-01-30T06:29:30;102729.63;;;-4.46;100.00
77227;BME280;66234;47.642;19.144;2024-01-30T06:32:33;102728.56;;;-4.41;100.00
77227;BME280;66234;47.642;19.144;2024-01-30T06:35:37;102729.84;;;-4.52;100.00
77227;BME280;66234;47.642;19.144;2024-01-30T06:38:46;102734.09;;;-4.50;100.00
77227;BME280;66234;47.642;19.144;2024-01-30T06:41:48;102740.56;;;-4.35;100.00
77227;BME280;66234;47.642;19.144;2024-01-30T06:44:51;102736.56;;;-4.19;100.00
77227;BME280;66234;47.642;19.144;2024-01-30T06:47:54;102748.44;;;-4.11;100.00
77227;BME280;66234;47.642;19.144;2024-01-30T06:50:57;102740.31;;;-4.03;100.00
77227;BME280;66234;47.642;19.144;2024-01-30T06:54:00;102737.16;;;-3.88;100.00
77227;BME280;66234;47.642;19.144;2024-01-30T06:57:03;102737.84;;;-3.83;100.00
77227;BME280;66234;47.642;19.144;2024-01-30T07:00:06;102734.94;;;-3.76;100.00
77227;BME280;66234;47.642;19.144;2024-01-30T07:03:08;102737.34;;;-3.70;100.00
77227;BME280;66234;47.642;19.144;2024-01-30T07:06:11;102740.47;;;-3.60;100.00
77227;BME280;66234;47.642;19.144;2024-01-30T07:09:14;102740.03;;;-3.48;100.00
77227;BME280;66234;47.642;19.144;2024-01-30T07:12:19;102744.28;;;-3.46;100.00
77227;BME280;66234;47.642;19.144;2024-01-30T07:15:22;102737.13;;;-3.41;100.00
77227;BME280;66234;47.642;19.144;2024-01-30T07:18:25;102739.53;;;-3.34;100.00
77227;BME280;66234;47.642;19.144;2024-01-30T07:21:27;102745.25;;;-3.25;100.00
77227;BME280;66234;47.642;19.144;2024-01-30T07:24:31;102746.03;;;-3.23;100.00
77227;BME280;66234;47.642;19.144;2024-01-30T07:27:33;102752.94;;;-3.20;100.00
77227;BME280;66234;47.642;19.144;2024-01-30T07:30:36;102742.84;;;-3.08;100.00
77227;BME280;66234;47.642;19.144;2024-01-30T07:33:39;102737.88;;;-2.92;100.00
77227;BME280;66234;47.642;19.144;2024-01-30T07:36:41;102744.34;;;-2.81;100.00
77227;BME280;66234;47.642;19.144;2024-01-30T07:39:44;102743.72;;;-2.66;100.00
77227;BME280;66234;47.642;19.144;2024-01-30T07:42:49;102739.84;;;-2.56;100.00
77227;BME280;66234;47.642;19.144;2024-01-30T07:45:51;102741.22;;;-2.47;100.00
77227;BME280;66234;47.642;19.144;2024-01-30T07:48:54;102741.75;;;-2.39;100.00
77227;BME280;66234;47.642;19.144;2024-01-30T07:51:58;102735.16;;;-2.28;100.00
77227;BME280;66234;47.642;19.144;2024-01-30T07:55:01;102744.50;;;-2.22;100.00
77227;BME280;66234;47.642;19.144;2024-01-30T07:58:06;102738.13;;;-2.15;100.00
77227;BME280;66234;47.642;19.144;2024-01-30T08:01:09;102725.56;;;-2.09;100.00
77227;BME280;66234;47.642;19.144;2024-01-30T08:04:12;102735.47;;;-1.95;100.00
77227;BME280;66234;47.642;19.144;2024-01-30T08:07:15;102732.38;;;-1.85;100.00
77227;BME280;66234;47.642;19.144;2024-01-30T08:10:18;102738.97;;;-1.76;100.00
77227;BME280;66234;47.642;19.144;2024-01-30T08:13:21;102736.00;;;-1.69;100.00
77227;BME280;66234;47.642;19.144;2024-01-30T08:16:24;102740.72;;;-1.56;100.00
77227;BME280;66234;47.642;19.144;2024-01-30T08:19:27;102735.78;;;-1.44;100.00
77227;BME280;66234;47.642;19.144;2024-01-30T08:22:30;102742.44;;;-1.18;100.00
77227;BME280;66234;47.642;19.144;2024-01-30T08:25:33;102745.25;;;-1.04;100.00
77227;BME280;66234;47.642;19.144;2024-01-30T08:28:36;102738.31;;;-0.87;100.00
77227;BME280;66234;47.642;19.144;2024-01-30T08:31:38;102744.97;;;-0.63;100.00
77227;BME280;66234;47.642;19.144;2024-01-30T08:34:41;102745.94;;;-0.47;100.00
77227;BME280;66234;47.642;19.144;2024-01-30T08:37:44;102741.44;;;-0.45;100.00
77227;BME280;66234;47.642;19.144;2024-01-30T08:40:47;102747.31;;;-0.23;100.00
77227;BME280;66234;47.642;19.144;2024-01-30T08:43:50;102747.41;;;-0.24;100.00
77227;BME280;66234;47.642;19.144;2024-01-30T08:46:52;102749.63;;;-0.17;100.00
77227;BME280;66234;47.642;19.144;2024-01-30T08:49:57;102743.91;;;-0.08;100.00
77227;BME280;66234;47.642;19.144;2024-01-30T08:53:00;102743.47;;;0.02;100.00
77227;BME280;66234;47.642;19.144;2024-01-30T08:56:03;102743.97;;;0.08;100.00
77227;BME280;66234;47.642;19.144;2024-01-30T08:59:06;102738.56;;;0.11;100.00
77227;BME280;66234;47.642;19.144;2024-01-30T09:02:13;102742.41;;;0.21;100.00
77227;BME280;66234;47.642;19.144;2024-01-30T09:05:18;102736.66;;;0.30;100.00
77227;BME280;66234;47.642;19.144;2024-01-30T09:08:21;102736.00;;;0.42;100.00
77227;BME280;66234;47.642;19.144;2024-01-30T09:11:24;102731.03;;;0.69;100.00
77227;BME280;66234;47.642;19.144;2024-01-30T09:14:28;102725.19;;;0.79;100.00
77227;BME280;66234;47.642;19.144;2024-01-30T09:17:35;102733.69;;;1.00;100.00
77227;BME280;66234;47.642;19.144;2024-01-30T09:20:37;102725.53;;;1.20;100.00
77227;BME280;66234;47.642;19.144;2024-01-30T09:23:40;102727.22;;;1.21;100.00
77227;BME280;66234;47.642;19.144;2024-01-30T09:26:43;102734.94;;;1.24;100.00
77227;BME280;66234;47.642;19.144;2024-01-30T09:29:45;102731.97;;;1.30;100.00
77227;BME280;66234;47.642;19.144;2024-01-30T09:32:48;102734.50;;;1.47;99.37
77227;BME280;66234;47.642;19.144;2024-01-30T09:35:51;102727.16;;;1.52;98.64
77227;BME280;66234;47.642;19.144;2024-01-30T09:38:54;102733.00;;;1.57;98.86
77227;BME280;66234;47.642;19.144;2024-01-30T09:42:10;102734.66;;;1.73;98.75
77227;BME280;66234;47.642;19.144;2024-01-30T09:45:14;102731.19;;;1.73;98.53
77227;BME280;66234;47.642;19.144;2024-01-30T09:48:17;102730.94;;;1.92;98.72
77227;BME280;66234;47.642;19.144;2024-01-30T09:51:20;102725.50;;;1.95;98.01
77227;BME280;66234;47.642;19.144;2024-01-30T09:54:24;102728.53;;;2.03;97.45
77227;BME280;66234;47.642;19.144;2024-01-30T09:57:30;102729.19;;;2.20;97.54
77227;BME280;66234;47.642;19.144;2024-01-30T10:00:32;102727.03;;;2.27;96.63
77227;BME280;66234;47.642;19.144;2024-01-30T10:03:35;102726.34;;;2.23;96.63
77227;BME280;66234;47.642;19.144;2024-01-30T10:06:41;102734.28;;;2.23;96.52
77227;BME280;66234;47.642;19.144;2024-01-30T10:09:45;102735.34;;;2.35;96.33
77227;BME280;66234;47.642;19.144;2024-01-30T10:12:48;102722.75;;;2.66;95.10
77227;BME280;66234;47.642;19.144;2024-01-30T10:15:54;102713.22;;;2.78;93.63
77227;BME280;66234;47.642;19.144;2024-01-30T10:18:57;102712.75;;;2.71;94.74
77227;BME280;66234;47.642;19.144;2024-01-30T10:22:00;102709.72;;;2.77;95.17
77227;BME280;66234;47.642;19.144;2024-01-30T10:25:06;102706.06;;;2.80;94.85
77227;BME280;66234;47.642;19.144;2024-01-30T10:28:09;102704.31;;;2.93;94.96
77227;BME280;66234;47.642;19.144;2024-01-30T10:31:17;102704.28;;;3.07;93.55
77227;BME280;66234;47.642;19.144;2024-01-30T10:34:21;102701.59;;;3.21;93.11
77227;BME280;66234;47.642;19.144;2024-01-30T10:37:25;102701.56;;;3.48;93.45
77227;BME280;66234;47.642;19.144;2024-01-30T10:40:31;102684.75;;;3.49;93.11
77227;BME280;66234;47.642;19.144;2024-01-30T10:43:41;102682.75;;;3.52;92.03
77227;BME280;66234;47.642;19.144;2024-01-30T10:46:50;102675.66;;;3.65;91.88
77227;BME280;66234;47.642;19.144;2024-01-30T10:49:55;102661.09;;;3.72;91.54
77227;BME280;66234;47.642;19.144;2024-01-30T10:52:59;102661.53;;;3.91;90.62
77227;BME280;66234;47.642;19.144;2024-01-30T10:56:03;102654.53;;;3.90;89.85
77227;BME280;66234;47.642;19.144;2024-01-30T10:59:07;102658.34;;;3.99;89.44
77227;BME280;66234;47.642;19.144;2024-01-30T11:02:14;102650.72;;;4.07;89.05
77227;BME280;66234;47.642;19.144;2024-01-30T11:05:23;102648.19;;;4.05;88.75
77227;BME280;66234;47.642;19.144;2024-01-30T11:08:35;102646.56;;;4.28;88.57
77227;BME280;66234;47.642;19.144;2024-01-30T11:11:57;102649.00;;;4.18;86.68
77227;BME280;66234;47.642;19.144;2024-01-30T11:15:14;102642.63;;;4.21;86.93
77227;BME280;66234;47.642;19.144;2024-01-30T11:18:24;102640.09;;;4.32;86.88
77227;BME280;66234;47.642;19.144;2024-01-30T11:21:28;102644.66;;;4.30;86.43
77227;BME280;66234;47.642;19.144;2024-01-30T11:24:40;102630.38;;;4.20;86.35
77227;BME280;66234;47.642;19.144;2024-01-30T11:27:45;102629.56;;;4.43;86.86
77227;BME280;66234;47.642;19.144;2024-01-30T11:30:48;102625.31;;;4.53;86.41
77227;BME280;66234;47.642;19.144;2024-01-30T11:33:53;102630.84;;;4.73;84.80
77227;BME280;66234;47.642;19.144;2024-01-30T11:36:58;102622.13;;;4.84;83.14
77227;BME280;66234;47.642;19.144;2024-01-30T11:40:02;102629.75;;;4.88;82.57
77227;BME280;66234;47.642;19.144;2024-01-30T11:43:07;102624.28;;;4.79;82.08
77227;BME280;66234;47.642;19.144;2024-01-30T11:46:11;102617.59;;;4.97;81.96
77227;BME280;66234;47.642;19.144;2024-01-30T11:49:15;102617.38;;;5.00;81.91
77227;BME280;66234;47.642;19.144;2024-01-30T11:52:19;102602.31;;;5.00;81.67
77227;BME280;66234;47.642;19.144;2024-01-30T11:55:23;102607.69;;;5.12;81.82
77227;BME280;66234;47.642;19.144;2024-01-30T11:58:26;102596.03;;;5.25;79.85
77227;BME280;66234;47.642;19.144;2024-01-30T12:01:30;102598.41;;;5.52;78.84
77227;BME280;66234;47.642;19.144;2024-01-30T12:04:35;102581.28;;;5.56;76.38
77227;BME280;66234;47.642;19.144;2024-01-30T12:07:37;102579.97;;;5.61;75.34
77227;BME280;66234;47.642;19.144;2024-01-30T12:10:41;102581.84;;;5.48;75.66
77227;BME280;66234;47.642;19.144;2024-01-30T12:13:44;102569.84;;;5.55;75.62
77227;BME280;66234;47.642;19.144;2024-01-30T12:16:48;102576.94;;;5.55;75.98
77227;BME280;66234;47.642;19.144;2024-01-30T12:20:05;102565.22;;;5.57;74.71
77227;BME280;66234;47.642;19.144;2024-01-30T12:23:11;102565.09;;;5.59;75.63
77227;BME280;66234;47.642;19.144;2024-01-30T12:26:14;102559.72;;;5.82;75.47
77227;BME280;66234;47.642;19.144;2024-01-30T12:29:17;102565.91;;;5.94;74.88
77227;BME280;66234;47.642;19.144;2024-01-30T12:32:22;102562.16;;;5.96;73.01
77227;BME280;66234;47.642;19.144;2024-01-30T12:35:25;102554.91;;;5.87;72.03
77227;BME280;66234;47.642;19.144;2024-01-30T12:38:30;102552.50;;;5.95;72.68
77227;BME280;66234;47.642;19.144;2024-01-30T12:41:33;102556.59;;;5.99;72.27
77227;BME280;66234;47.642;19.144;2024-01-30T12:44:35;102550.53;;;6.19;70.50
77227;BME280;66234;47.642;19.144;2024-01-30T12:47:38;102553.19;;;6.19;68.89
77227;BME280;66234;47.642;19.144;2024-01-30T12:50:41;102554.50;;;6.36;68.43
77227;BME280;66234;47.642;19.144;2024-01-30T12:53:44;102550.88;;;6.37;67.72
77227;BME280;66234;47.642;19.144;2024-01-30T12:56:49;102538.34;;;6.28;67.34
77227;BME280;66234;47.642;19.144;2024-01-30T12:59:51;102543.41;;;6.31;66.96
77227;BME280;66234;47.642;19.144;2024-01-30T13:02:54;102543.38;;;6.42;66.90
77227;BME280;66234;47.642;19.144;2024-01-30T13:05:57;102535.34;;;6.53;66.13
77227;BME280;66234;47.642;19.144;2024-01-30T13:09:00;102524.22;;;6.91;65.89
77227;BME280;66234;47.642;19.144;2024-01-30T13:12:03;102519.13;;;7.19;63.48
77227;BME280;66234;47.642;19.144;2024-01-30T13:15:06;102521.44;;;7.33;63.11
77227;BME280;66234;47.642;19.144;2024-01-30T13:18:08;102519.59;;;7.54;62.64
77227;BME280;66234;47.642;19.144;2024-01-30T13:21:11;102520.47;;;7.55;60.55
77227;BME280;66234;47.642;19.144;2024-01-30T13:24:14;102524.25;;;7.62;60.80
77227;BME280;66234;47.642;19.144;2024-01-30T13:27:17;102515.28;;;7.63;60.91
77227;BME280;66234;47.642;19.144;2024-01-30T13:30:30;102521.69;;;7.81;59.46
77227;BME280;66234;47.642;19.144;2024-01-30T13:33:32;102518.72;;;7.74;58.69
77227;BME280;66234;47.642;19.144;2024-01-30T13:36:36;102520.97;;;7.79;58.67
77227;BME280;66234;47.642;19.144;2024-01-30T13:39:41;102520.97;;;8.18;57.60
77227;BME280;66234;47.642;19.144;2024-01-30T13:42:43;102520.78;;;8.41;57.50
77227;BME280;66234;47.642;19.144;2024-01-30T13:45:49;102519.94;;;8.50;57.82
77227;BME280;66234;47.642;19.144;2024-01-30T13:48:52;102514.91;;;8.56;56.75
77227;BME280;66234;47.642;19.144;2024-01-30T13:51:58;102512.06;;;8.38;56.01
77227;BME280;66234;47.642;19.144;2024-01-30T13:55:01;102515.91;;;8.15;56.67
77227;BME280;66234;47.642;19.144;2024-01-30T13:58:04;102520.91;;;8.39;56.26
77227;BME280;66234;47.642;19.144;2024-01-30T14:01:07;102513.66;;;8.51;56.44
77227;BME280;66234;47.642;19.144;2024-01-30T14:04:10;102515.34;;;8.21;57.29
77227;BME280;66234;47.642;19.144;2024-01-30T14:07:17;102509.69;;;8.26;57.70
77227;BME280;66234;47.642;19.144;2024-01-30T14:10:20;102510.81;;;8.71;56.73
77227;BME280;66234;47.642;19.144;2024-01-30T14:13:23;102512.25;;;8.85;56.10
77227;BME280;66234;47.642;19.144;2024-01-30T14:16:27;102510.00;;;8.61;54.41
77227;BME280;66234;47.642;19.144;2024-01-30T14:19:31;102505.75;;;8.30;55.09
77227;BME280;66234;47.642;19.144;2024-01-30T14:22:37;102502.56;;;8.46;54.19
77227;BME280;66234;47.642;19.144;2024-01-30T14:25:40;102507.25;;;8.23;53.69
77227;BME280;66234;47.642;19.144;2024-01-30T14:28:45;102510.41;;;7.98;53.67
77227;BME280;66234;47.642;19.144;2024-01-30T14:31:48;102504.94;;;8.58;52.95
77227;BME280;66234;47.642;19.144;2024-01-30T14:34:51;102498.59;;;8.40;51.80
77227;BME280;66234;47.642;19.144;2024-01-30T14:37:55;102503.25;;;8.38;52.32
77227;BME280;66234;47.642;19.144;2024-01-30T14:40:57;102498.44;;;7.53;53.41
77227;BME280;66234;47.642;19.144;2024-01-30T14:44:00;102496.78;;;7.91;52.81
77227;BME280;66234;47.642;19.144;2024-01-30T14:47:04;102492.28;;;7.82;52.72
77227;BME280;66234;47.642;19.144;2024-01-30T14:50:07;102496.25;;;7.97;52.38
77227;BME280;66234;47.642;19.144;2024-01-30T14:53:11;102492.88;;;8.05;52.00
77227;BME280;66234;47.642;19.144;2024-01-30T14:56:13;102479.84;;;7.62;52.34
77227;BME280;66234;47.642;19.144;2024-01-30T14:59:16;102492.66;;;6.97;54.33
77227;BME280;66234;47.642;19.144;2024-01-30T15:02:19;102500.00;;;6.73;54.88
77227;BME280;66234;47.642;19.144;2024-01-30T15:05:22;102487.28;;;6.56;56.09
77227;BME280;66234;47.642;19.144;2024-01-30T15:08:25;102501.50;;;6.23;57.82
77227;BME280;66234;47.642;19.144;2024-01-30T15:11:27;102487.28;;;6.13;57.59
77227;BME280;66234;47.642;19.144;2024-01-30T15:14:30;102489.47;;;5.97;58.32
77227;BME280;66234;47.642;19.144;2024-01-30T15:17:33;102495.78;;;5.85;57.93
77227;BME280;66234;47.642;19.144;2024-01-30T15:20:35;102495.91;;;5.84;58.22
77227;BME280;66234;47.642;19.144;2024-01-30T15:23:38;102491.53;;;5.61;59.04
77227;BME280;66234;47.642;19.144;2024-01-30T15:26:41;102498.75;;;5.26;60.42
77227;BME280;66234;47.642;19.144;2024-01-30T15:29:44;102500.34;;;4.93;61.28
77227;BME280;66234;47.642;19.144;2024-01-30T15:32:47;102492.19;;;4.62;62.42
77227;BME280;66234;47.642;19.144;2024-01-30T15:35:50;102496.63;;;4.38;63.34
77227;BME280;66234;47.642;19.144;2024-01-30T15:38:52;102500.84;;;4.17;65.11
77227;BME280;66234;47.642;19.144;2024-01-30T15:41:55;102501.84;;;4.03;65.39
77227;BME280;66234;47.642;19.144;2024-01-30T15:44:58;102500.84;;;3.81;66.64